Time;durP1;ratioP1;P1;durP2;ratioP2;P2;SDS_P1;SDS_P2;PMS_P1;PMS_P2;Temp;Humidity;BMP_temperature;BMP_pressure;BME280_temperature;BME280_humidity;BME280_pressure;Samples;Min_cycle;Max_cycle;Signal;HPM_P1;HPM_P2
2023/10/17 00:02:06;;;;;;;0.70;0.50;;;5.10;99.90;;;;;;5054430;28;20050;-83
2023/10/17 00:04:35;;;;;;;0.82;0.40;;;5.10;99.90;;;;;;5055053;28;20536;-82
2023/10/17 00:07:04;;;;;;;1.25;0.90;;;5.10;99.90;;;;;;4988202;28;20042;-82
2023/10/17 00:09:36;;;;;;;0.90;0.73;;;5.10;99.90;;;;;;4987353;28;20076;-82
2023/10/17 00:12:25;;;;;;;3.53;1.17;;;5.10;99.90;;;;;;4988169;28;20046;-82
2023/10/17 00:17:17;;;;;;;5.13;1.10;;;5.10;99.90;;;;;;4986234;28;20046;-82
2023/10/17 00:19:44;;;;;;;2.08;1.27;;;5.10;99.90;;;;;;4987971;28;20103;-82
2023/10/17 00:22:12;;;;;;;2.92;1.02;;;5.20;99.90;;;;;;4987702;28;20074;-82
2023/10/17 00:24:38;;;;;;;2.90;1.50;;;5.20;99.90;;;;;;4986555;28;20074;-82
2023/10/17 00:27:04;;;;;;;5.50;1.90;;;5.20;99.90;;;;;;4987866;28;20088;-82
2023/10/17 00:29:29;;;;;;;2.13;1.30;;;5.20;99.90;;;;;;5054842;28;20072;-82
2023/10/17 00:31:56;;;;;;;2.15;1.00;;;5.20;99.90;;;;;;4987375;28;20123;-83
2023/10/17 00:34:25;;;;;;;2.25;1.42;;;5.20;99.90;;;;;;4987934;28;20039;-83
2023/10/17 00:37:00;;;;;;;1.60;0.93;;;5.20;99.90;;;;;;4969241;28;20035;-82
2023/10/17 00:39:29;;;;;;;3.03;1.15;;;5.20;99.90;;;;;;5019028;28;20043;-82
2023/10/17 00:44:32;;;;;;;1.63;0.93;;;5.20;99.90;;;;;;5052953;28;20054;-82
2023/10/17 00:46:59;;;;;;;1.40;0.80;;;5.20;99.90;;;;;;5054671;28;20058;-82
2023/10/17 00:49:25;;;;;;;1.50;0.77;;;5.20;99.90;;;;;;5054494;28;20047;-82
2023/10/17 00:51:55;;;;;;;1.85;1.10;;;5.20;99.90;;;;;;4985627;28;20042;-82
2023/10/17 00:54:26;;;;;;;1.35;0.65;;;5.10;99.90;;;;;;5054095;28;20567;-83
2023/10/17 00:56:55;;;;;;;4.50;1.05;;;5.10;99.90;;;;;;4987859;28;20046;-82
2023/10/17 00:59:24;;;;;;;1.08;0.60;;;5.10;99.90;;;;;;4987442;28;20053;-82
2023/10/17 01:01:51;;;;;;;1.33;0.73;;;5.00;99.90;;;;;;5054632;28;20046;-82
2023/10/17 01:04:22;;;;;;;2.80;1.08;;;5.00;99.90;;;;;;4987218;28;20030;-82
2023/10/17 01:06:54;;;;;;;2.22;0.98;;;5.00;99.90;;;;;;4988488;28;20096;-82
2023/10/17 01:09:28;;;;;;;1.20;0.80;;;5.10;99.90;;;;;;4991100;28;20072;-82
2023/10/17 01:11:54;;;;;;;1.58;1.00;;;5.10;99.90;;;;;;4990049;28;20129;-82
2023/10/17 01:14:23;;;;;;;2.42;1.58;;;5.10;99.90;;;;;;5058367;28;20080;-82
2023/10/17 01:16:52;;;;;;;2.75;1.10;;;5.10;99.90;;;;;;4990608;28;20409;-82
2023/10/17 01:19:21;;;;;;;1.02;0.60;;;5.10;99.90;;;;;;5056524;28;20125;-82
2023/10/17 01:21:50;;;;;;;1.40;0.77;;;5.10;99.90;;;;;;5057600;28;20486;-82
2023/10/17 01:24:16;;;;;;;1.08;0.80;;;5.10;99.90;;;;;;5057442;28;20304;-82
2023/10/17 01:26:46;;;;;;;2.58;0.90;;;5.10;99.90;;;;;;4989784;28;20486;-82
2023/10/17 01:29:12;;;;;;;3.13;0.95;;;5.10;99.90;;;;;;5041436;28;20042;-82
2023/10/17 01:31:43;;;;;;;1.40;0.85;;;5.00;99.90;;;;;;4990731;28;20496;-82
2023/10/17 01:34:11;;;;;;;2.88;0.90;;;5.00;99.90;;;;;;4990058;28;20134;-82
2023/10/17 01:36:38;;;;;;;0.82;0.60;;;4.90;99.90;;;;;;4990309;28;20042;-82
2023/10/17 01:39:08;;;;;;;2.35;1.33;;;4.90;99.90;;;;;;5057666;28;20050;-82
2023/10/17 01:41:35;;;;;;;2.33;1.17;;;4.80;99.90;;;;;;5057077;28;20045;-82
2023/10/17 01:44:01;;;;;;;2.00;1.00;;;4.80;99.90;;;;;;5040761;28;20046;-81
2023/10/17 01:46:31;;;;;;;1.77;1.25;;;4.80;99.90;;;;;;5057699;28;20603;-82
2023/10/17 01:49:09;;;;;;;2.57;1.47;;;4.80;99.90;;;;;;5057485;28;20042;-82
2023/10/17 01:51:35;;;;;;;2.50;1.40;;;4.80;99.90;;;;;;5057645;28;20117;-82
2023/10/17 01:54:07;;;;;;;2.13;1.15;;;4.80;99.90;;;;;;4989561;28;20121;-82
2023/10/17 01:56:33;;;;;;;2.30;0.80;;;4.80;99.90;;;;;;5057526;28;20040;-82
2023/10/17 01:59:13;;;;;;;0.90;0.73;;;4.80;99.90;;;;;;4989875;28;20042;-82
2023/10/17 02:01:40;;;;;;;1.17;0.93;;;4.80;99.90;;;;;;4989549;28;20039;-82
2023/10/17 02:04:12;;;;;;;2.17;1.00;;;4.80;99.90;;;;;;4989796;28;20117;-82
2023/10/17 02:06:39;;;;;;;1.35;1.13;;;4.80;99.90;;;;;;4989874;28;20478;-82
2023/10/17 02:09:24;;;;;;;2.53;1.10;;;4.80;99.90;;;;;;4989849;28;20122;-82
2023/10/17 02:12:01;;;;;;;1.38;0.93;;;4.80;99.90;;;;;;4990408;28;20042;-82
2023/10/17 02:14:26;;;;;;;2.30;0.75;;;4.70;99.90;;;;;;4990188;28;20406;-82
2023/10/17 02:16:55;;;;;;;4.18;1.20;;;4.70;99.90;;;;;;4989057;28;20030;-82
2023/10/17 02:19:21;;;;;;;2.17;0.82;;;4.70;99.90;;;;;;4990238;28;20425;-82
2023/10/17 02:21:50;;;;;;;2.63;0.90;;;4.60;99.90;;;;;;4988324;28;20103;-82
2023/10/17 02:24:22;;;;;;;6.15;1.00;;;4.60;99.90;;;;;;4982767;28;20042;-82
2023/10/17 02:26:59;;;;;;;3.30;1.45;;;4.50;99.90;;;;;;4989516;28;20535;-82
2023/10/17 02:29:27;;;;;;;4.30;1.00;;;4.50;99.90;;;;;;4988744;28;20481;-82
2023/10/17 02:31:54;;;;;;;2.78;0.95;;;4.50;99.90;;;;;;4989832;28;20046;-82
2023/10/17 02:34:29;;;;;;;2.08;1.10;;;4.50;99.90;;;;;;4989467;28;20440;-82
2023/10/17 02:36:55;;;;;;;1.98;1.00;;;4.50;99.90;;;;;;4988507;28;20042;-82
2023/10/17 02:39:21;;;;;;;2.17;0.90;;;4.50;99.90;;;;;;5056728;28;20077;-82
2023/10/17 02:41:57;;;;;;;2.25;1.25;;;4.50;99.90;;;;;;4989514;28;20513;-82
2023/10/17 02:44:24;;;;;;;2.75;1.30;;;4.50;99.90;;;;;;4988870;28;20070;-82
2023/10/17 02:46:50;;;;;;;1.63;0.88;;;4.50;99.90;;;;;;4989112;28;20046;-82
2023/10/17 02:49:16;;;;;;;2.47;1.05;;;4.50;99.90;;;;;;4989489;28;20111;-82
2023/10/17 02:51:45;;;;;;;5.10;1.27;;;4.60;99.90;;;;;;5055602;28;20401;-82
2023/10/17 02:54:15;;;;;;;2.58;1.02;;;4.60;99.90;;;;;;5056815;28;20493;-82
2023/10/17 02:56:51;;;;;;;2.28;0.88;;;4.60;99.90;;;;;;4988966;28;20042;-82
2023/10/17 02:59:17;;;;;;;1.30;0.88;;;4.70;99.90;;;;;;4989275;28;20043;-82
2023/10/17 03:01:44;;;;;;;2.95;1.52;;;4.60;99.90;;;;;;4989109;28;20040;-82
2023/10/17 03:04:13;;;;;;;3.35;0.85;;;4.60;99.90;;;;;;5055802;28;20126;-82
2023/10/17 03:06:44;;;;;;;0.97;0.60;;;4.60;99.90;;;;;;4989262;28;20402;-82
2023/10/17 03:09:16;;;;;;;1.45;0.80;;;4.60;99.90;;;;;;4988879;28;20764;-82
2023/10/17 03:11:57;;;;;;;1.90;1.10;;;4.50;99.90;;;;;;4988465;28;20073;-82
2023/10/17 03:14:39;;;;;;;1.92;0.90;;;4.50;99.90;;;;;;4989167;28;20030;-82
2023/10/17 03:17:05;;;;;;;2.60;1.23;;;4.40;99.90;;;;;;4988883;28;20100;-82
2023/10/17 03:19:33;;;;;;;1.35;1.08;;;4.40;99.90;;;;;;4988082;28;20042;-82
2023/10/17 03:22:16;;;;;;;1.95;0.98;;;4.40;99.90;;;;;;5055748;28;20054;-82
2023/10/17 03:24:59;;;;;;;1.15;0.80;;;4.40;99.90;;;;;;4987576;28;20104;-82
2023/10/17 03:27:36;;;;;;;1.40;0.77;;;4.30;99.90;;;;;;4988663;28;20038;-82
2023/10/17 03:30:11;;;;;;;0.93;0.73;;;4.30;99.90;;;;;;4987496;28;20046;-82
2023/10/17 03:32:54;;;;;;;0.88;0.65;;;4.30;99.90;;;;;;4987648;28;20038;-82
2023/10/17 03:35:22;;;;;;;1.20;0.70;;;4.20;99.90;;;;;;4989199;28;20042;-82
2023/10/17 03:37:48;;;;;;;1.55;0.80;;;4.20;99.90;;;;;;4989245;28;20470;-82
2023/10/17 03:40:30;;;;;;;3.60;1.23;;;4.20;99.90;;;;;;4988213;28;20043;-82
2023/10/17 03:43:00;;;;;;;1.38;0.80;;;4.10;99.90;;;;;;5055928;28;20450;-82
2023/10/17 03:45:34;;;;;;;3.05;0.50;;;4.10;99.90;;;;;;5006224;28;20069;-82
2023/10/17 03:48:04;;;;;;;1.95;1.08;;;4.10;99.90;;;;;;4968305;28;20031;-82
2023/10/17 03:50:43;;;;;;;1.75;1.08;;;4.00;99.90;;;;;;4967794;28;20046;-82
2023/10/17 03:53:15;;;;;;;1.30;1.02;;;4.00;99.90;;;;;;4968156;28;20180;-82
2023/10/17 03:55:43;;;;;;;1.85;1.13;;;4.00;99.90;;;;;;4968952;28;20039;-82
2023/10/17 03:58:24;;;;;;;2.50;0.68;;;3.90;99.90;;;;;;4968866;28;20394;-82
2023/10/17 04:00:51;;;;;;;4.10;0.93;;;3.90;99.90;;;;;;4966750;28;20086;-81
2023/10/17 04:03:21;;;;;;;1.02;0.60;;;3.90;99.90;;;;;;4968722;28;20042;-82
2023/10/17 04:08:48;;;;;;;6.90;1.25;;;3.90;99.90;;;;;;4968284;28;20082;-82
2023/10/17 04:11:18;;;;;;;2.08;1.05;;;3.90;99.90;;;;;;4968649;28;20046;-82
2023/10/17 04:13:49;;;;;;;;;;;3.90;99.90;;;;;;4968242;28;20266;-82
2023/10/17 04:16:26;;;;;;;0.95;0.75;;;3.80;99.90;;;;;;4968352;28;20012;-82
2023/10/17 04:19:00;;;;;;;1.50;0.80;;;3.80;99.90;;;;;;4968458;28;20054;-82
2023/10/17 04:21:36;;;;;;;2.05;0.95;;;3.80;99.90;;;;;;4967651;28;20047;-82
2023/10/17 04:24:10;;;;;;;3.83;0.88;;;3.80;99.90;;;;;;4968016;28;20434;-82
2023/10/17 04:26:36;;;;;;;3.30;0.85;;;3.80;99.90;;;;;;4947180;29;20105;-82
2023/10/17 04:29:11;;;;;;;1.95;1.17;;;3.80;99.90;;;;;;4962399;28;20046;-82
2023/10/17 04:31:43;;;;;;;1.17;0.75;;;3.80;99.90;;;;;;4968480;28;20116;-82
2023/10/17 04:34:21;;;;;;;1.25;0.82;;;3.80;99.90;;;;;;4968282;28;20431;-82
2023/10/17 04:36:51;;;;;;;1.52;0.95;;;3.80;99.90;;;;;;4950127;28;20046;-82
2023/10/17 04:44:50;;;;;;;3.70;0.93;;;3.80;99.90;;;;;;4971057;28;20085;-82
2023/10/17 04:49:54;;;;;;;2.53;0.80;;;3.70;99.90;;;;;;4986967;28;20107;-82
2023/10/17 04:52:28;;;;;;;1.70;1.08;;;3.70;99.90;;;;;;4987576;28;20039;-82
2023/10/17 04:54:58;;;;;;;1.63;0.90;;;3.70;99.90;;;;;;5055606;28;20401;-82
2023/10/17 04:57:48;;;;;;;1.00;0.63;;;3.70;99.90;;;;;;4987061;28;20077;-82
2023/10/17 05:00:11;;;;;;;1.13;0.68;;;3.60;99.90;;;;;;4987399;28;20475;-82
2023/10/17 05:02:38;;;;;;;2.42;1.05;;;3.60;99.90;;;;;;5054881;28;20038;-82
2023/10/17 05:07:34;;;;;;;6.15;1.00;;;3.60;99.90;;;;;;5054270;28;20046;-82
2023/10/17 06:18:57;;;;;;;1.45;0.88;;;3.40;99.90;;;;;;4990069;28;20038;-82
2023/10/17 06:21:35;;;;;;;2.55;1.05;;;3.40;99.90;;;;;;5056047;28;20054;-82
2023/10/17 06:26:47;;;;;;;2.13;0.90;;;3.50;99.90;;;;;;4969913;28;20043;-83
2023/10/17 06:34:21;;;;;;;2.22;1.50;;;3.50;99.90;;;;;;5034977;28;20406;-82
2023/10/17 06:36:50;;;;;;;1.88;1.00;;;3.50;99.90;;;;;;5036576;28;20039;-82
2023/10/17 06:39:18;;;;;;;1.13;0.73;;;3.50;99.90;;;;;;4970073;28;20043;-82
2023/10/17 06:41:47;;;;;;;3.72;0.93;;;3.50;99.90;;;;;;4980182;28;20043;-82
2023/10/17 06:44:33;;;;;;;2.05;0.90;;;3.50;99.90;;;;;;5056917;28;20057;-82
2023/10/17 06:47:07;;;;;;;1.15;0.73;;;3.60;99.90;;;;;;5056566;28;20085;-82
2023/10/17 06:54:43;;;;;;;2.53;1.27;;;3.60;99.90;;;;;;5056704;28;20046;-83
2023/10/17 06:57:33;;;;;;;4.38;1.30;;;3.70;99.90;;;;;;4988265;28;20035;-82
2023/10/17 07:00:24;;;;;;;2.75;1.63;;;3.80;99.90;;;;;;5056411;28;20463;-82
2023/10/17 07:02:56;;;;;;;0.90;0.52;;;3.90;99.90;;;;;;5055342;28;20058;-82
2023/10/17 07:05:22;;;;;;;1.90;1.00;;;3.90;99.90;;;;;;5039198;28;20451;-82
2023/10/17 07:07:59;;;;;;;1.88;0.95;;;4.10;99.90;;;;;;5042511;28;20074;-82
2023/10/17 07:13:49;;;;;;;2.22;1.30;;;4.20;99.90;;;;;;5055876;28;20046;-82
2023/10/17 07:16:22;;;;;;;2.30;1.30;;;4.20;99.90;;;;;;5037947;28;20061;-82
2023/10/17 07:18:55;;;;;;;1.50;0.90;;;4.30;99.90;;;;;;5053386;28;20092;-82
2023/10/17 07:21:24;;;;;;;2.05;0.90;;;4.40;99.90;;;;;;4988556;28;20091;-82
2023/10/17 07:23:54;;;;;;;2.88;0.85;;;4.50;99.90;;;;;;4987004;28;20129;-82
2023/10/17 07:28:52;;;;;;;5.43;1.58;;;4.70;99.90;;;;;;4988456;28;20074;-83
2023/10/17 07:31:20;;;;;;;2.88;1.27;;;4.80;99.90;;;;;;5055415;28;20054;-83
2023/10/17 07:36:57;;;;;;;1.85;1.02;;;5.10;99.90;;;;;;4987496;28;20042;-83
2023/10/17 07:39:24;;;;;;;2.83;1.13;;;5.30;99.90;;;;;;4986619;28;20077;-83
2023/10/17 07:41:53;;;;;;;2.72;1.33;;;5.40;99.90;;;;;;4987452;28;20084;-83
2023/10/17 07:44:21;;;;;;;2.35;1.27;;;5.50;99.90;;;;;;4987330;28;20363;-89
2023/10/17 07:47:08;;;;;;;3.22;1.40;;;5.70;99.90;;;;;;4972387;28;20049;-84
2023/10/17 07:49:41;;;;;;;3.95;1.40;;;5.90;99.90;;;;;;4988160;28;20108;-83
2023/10/17 07:52:17;;;;;;;4.50;1.10;;;6.20;99.90;;;;;;4987985;28;20050;-83
2023/10/17 07:55:17;;;;;;;3.20;1.35;;;6.30;99.90;;;;;;4956205;28;20046;-84
2023/10/17 07:57:44;;;;;;;6.93;0.90;;;6.50;99.90;;;;;;4988080;28;20380;-83
2023/10/17 08:00:26;;;;;;;2.42;1.55;;;6.60;99.90;;;;;;4987882;28;20129;-83
2023/10/17 08:03:00;;;;;;;2.13;1.10;;;6.80;99.90;;;;;;4988428;28;20100;-83
2023/10/17 08:05:36;;;;;;;2.97;1.30;;;7.10;99.90;;;;;;4970625;28;20058;-84
2023/10/17 08:08:13;;;;;;;2.33;1.27;;;7.70;99.90;;;;;;4971989;28;20100;-83
2023/10/17 08:10:39;;;;;;;3.10;1.65;;;8.50;99.90;;;;;;4979607;28;20422;-83
2023/10/17 08:13:08;;;;;;;4.47;2.08;;;9.40;99.90;;;;;;5041527;28;20054;-83
2023/10/17 08:15:53;;;;;;;4.00;1.55;;;10.10;99.90;;;;;;5054694;28;20108;-83
2023/10/17 08:18:22;;;;;;;2.35;1.23;;;10.70;99.90;;;;;;5055147;28;20129;-83
2023/10/17 08:23:27;;;;;;;2.60;1.50;;;11.60;99.90;;;;;;4987381;28;20042;-84
2023/10/17 08:26:00;;;;;;;1.88;1.05;;;11.80;99.90;;;;;;4987233;28;20038;-83
2023/10/17 08:28:34;;;;;;;2.25;1.25;;;12.10;99.90;;;;;;5054686;28;20074;-83
2023/10/17 08:31:13;;;;;;;4.28;1.45;;;12.40;99.90;;;;;;5054966;28;20046;-83
2023/10/17 08:33:42;;;;;;;1.63;1.20;;;12.70;99.90;;;;;;5054163;28;20050;-83
2023/10/17 08:36:10;;;;;;;2.65;0.98;;;13.20;99.90;;;;;;5054295;28;20047;-84
2023/10/17 08:38:39;;;;;;;1.45;1.08;;;13.80;99.90;;;;;;5054701;28;20119;-83
2023/10/17 08:41:08;;;;;;;1.88;1.08;;;14.30;99.90;;;;;;4980003;28;20089;-83
2023/10/17 08:43:36;;;;;;;1.95;0.90;;;14.70;99.90;;;;;;4968423;28;20625;-83
2023/10/17 08:46:09;;;;;;;2.45;1.15;;;15.10;99.90;;;;;;4967682;28;20073;-83
2023/10/17 08:48:36;;;;;;;1.92;1.00;;;15.30;99.90;;;;;;5033180;28;20108;-82
2023/10/17 08:51:06;;;;;;;1.92;1.27;;;15.60;99.90;;;;;;4967852;28;20058;-84
2023/10/17 08:53:32;;;;;;;1.02;0.70;;;15.80;99.90;;;;;;4967661;28;20521;-86
2023/10/17 08:55:59;;;;;;;3.75;1.02;;;16.00;99.90;;;;;;5034397;28;20074;-85
2023/10/17 08:58:32;;;;;;;0.95;0.50;;;16.40;99.90;;;;;;5034107;28;20493;-86
2023/10/17 09:01:13;;;;;;;4.78;0.80;;;16.60;99.90;;;;;;5034199;28;20085;-85
2023/10/17 09:03:46;;;;;;;3.03;0.70;;;16.70;99.90;;;;;;4987460;28;20113;-85
2023/10/17 09:11:14;;;;;;;3.70;0.60;;;17.50;99.90;;;;;;4986519;28;20046;-83
2023/10/17 09:16:15;;;;;;;1.52;0.40;;;17.50;99.90;;;;;;4986738;28;19918;-83
2023/10/17 09:18:48;;;;;;;4.20;0.82;;;17.40;99.90;;;;;;4986967;28;20123;-83
2023/10/17 09:21:20;;;;;;;0.98;0.57;;;17.40;99.90;;;;;;4985398;28;20127;-82
2023/10/17 09:23:47;;;;;;;0.93;0.47;;;17.50;99.90;;;;;;4986164;28;20434;-83
2023/10/17 09:26:23;;;;;;;3.17;0.75;;;17.70;99.90;;;;;;5054365;28;20054;-84
2023/10/17 09:29:02;;;;;;;1.63;0.65;;;18.00;99.90;;;;;;4994452;28;20133;-84
2023/10/17 09:31:29;;;;;;;0.95;0.40;;;18.60;99.90;;;;;;4990537;28;20030;-83
2023/10/17 09:34:04;;;;;;;1.25;0.60;;;18.90;99.90;;;;;;4986857;28;20056;-84
2023/10/17 09:36:32;;;;;;;1.45;0.55;;;19.20;99.90;;;;;;4989216;28;20035;-86
2023/10/17 09:39:02;;;;;;;0.43;0.22;;;19.30;99.90;;;;;;5057902;28;20050;-84
2023/10/17 09:41:28;;;;;;;1.80;0.77;;;19.30;99.90;;;;;;4989676;28;20066;-84
2023/10/17 09:43:56;;;;;;;0.65;0.25;;;19.20;99.90;;;;;;4989251;28;20091;-84
2023/10/17 09:46:31;;;;;;;1.77;0.47;;;19.30;99.90;;;;;;4989180;28;20498;-85
2023/10/17 09:49:00;;;;;;;1.27;0.43;;;19.10;99.90;;;;;;5057749;28;20046;-85
2023/10/17 09:51:33;;;;;;;0.85;0.43;;;19.00;99.90;;;;;;5056648;28;20050;-85
2023/10/17 09:53:59;;;;;;;2.13;0.30;;;18.90;99.90;;;;;;5057216;28;20129;-85
2023/10/17 09:56:33;;;;;;;1.27;0.40;;;18.80;99.90;;;;;;5057531;28;20110;-85
2023/10/17 09:59:06;;;;;;;1.52;0.50;;;18.80;99.90;;;;;;4989096;28;20393;-86
2023/10/17 10:01:34;;;;;;;1.20;0.30;;;18.80;99.90;;;;;;5057055;28;20050;-86
2023/10/17 10:04:01;;;;;;;5.70;0.60;;;18.80;99.90;;;;;;4989229;28;20062;-83
2023/10/17 10:06:32;;;;;;;1.17;0.65;;;18.90;99.90;;;;;;4989722;28;20120;-84
2023/10/17 10:09:13;;;;;;;2.85;0.85;;;19.00;99.90;;;;;;4990396;28;20034;-86
2023/10/17 10:11:48;;;;;;;0.93;0.28;;;18.80;99.80;;;;;;4990223;28;20051;-83
2023/10/17 10:14:15;;;;;;;1.25;0.60;;;18.70;98.90;;;;;;4989703;28;20077;-83
2023/10/17 10:16:53;;;;;;;2.58;0.57;;;18.70;99.40;;;;;;4989192;28;20130;-82
2023/10/17 10:19:24;;;;;;;2.40;0.52;;;18.60;97.70;;;;;;4989157;28;20501;-83
2023/10/17 10:22:00;;;;;;;0.80;0.38;;;18.50;98.80;;;;;;5040438;28;20124;-83
2023/10/17 10:24:31;;;;;;;2.10;0.30;;;18.50;99.40;;;;;;4986013;28;20042;-83
2023/10/17 10:27:15;;;;;;;0.50;0.30;;;18.60;97.80;;;;;;5052830;28;20049;-84
2023/10/17 10:29:43;;;;;;;1.17;0.17;;;18.70;96.70;;;;;;4986158;28;20073;-83
2023/10/17 10:32:28;;;;;;;1.20;0.30;;;18.70;97.40;;;;;;5052179;28;20053;-83
2023/10/17 10:34:54;;;;;;;0.95;0.20;;;18.60;95.80;;;;;;4986327;28;20115;-84
2023/10/17 10:37:20;;;;;;;1.50;0.50;;;18.60;96.50;;;;;;4986369;28;20043;-83
2023/10/17 10:40:22;;;;;;;0.55;0.22;;;18.70;95.70;;;;;;4985710;28;20046;-84
2023/10/17 10:43:00;;;;;;;0.50;0.30;;;18.80;94.20;;;;;;5053196;28;20502;-84
2023/10/17 10:45:42;;;;;;;0.52;0.22;;;18.80;95.00;;;;;;4984162;28;20375;-84
2023/10/17 10:48:14;;;;;;;2.08;0.32;;;18.70;95.50;;;;;;4984081;28;20042;-82
2023/10/17 10:50:42;;;;;;;0.95;0.32;;;18.20;95.50;;;;;;5051787;28;20129;-83
2023/10/17 10:53:31;;;;;;;0.70;0.20;;;17.60;95.70;;;;;;4985162;28;20525;-83
2023/10/17 10:56:06;;;;;;;0.98;0.20;;;17.20;96.10;;;;;;4986387;28;20035;-83
2023/10/17 10:58:33;;;;;;;0.75;0.40;;;17.40;97.60;;;;;;4984271;28;20476;-83
2023/10/17 11:01:02;;;;;;;0.45;0.28;;;17.60;96.50;;;;;;4984309;28;20042;-83
2023/10/17 11:03:30;;;;;;;1.10;0.35;;;17.80;95.50;;;;;;5049765;28;20057;-83
2023/10/17 11:06:03;;;;;;;0.82;0.20;;;17.50;95.30;;;;;;4984990;28;20053;-82
2023/10/17 11:08:46;;;;;;;0.47;0.28;;;17.30;96.10;;;;;;5051785;28;20432;-83
2023/10/17 11:11:16;;;;;;;0.30;0.20;;;17.50;96.40;;;;;;4986497;28;20389;-83
2023/10/17 11:13:54;;;;;;;0.88;0.25;;;17.40;95.50;;;;;;4985365;28;20069;-82
2023/10/17 11:16:25;;;;;;;1.50;0.30;;;17.00;93.90;;;;;;5052823;28;20099;-83
2023/10/17 11:18:51;;;;;;;1.08;0.57;;;16.60;95.10;;;;;;4985709;28;20074;-82
2023/10/17 11:21:22;;;;;;;0.10;0.10;;;16.80;95.80;;;;;;5051223;28;20077;-83
2023/10/17 11:23:57;;;;;;;0.10;0.10;;;17.20;96.10;;;;;;5051655;28;20046;-83
2023/10/17 11:26:29;;;;;;;0.73;0.22;;;17.30;94.60;;;;;;4985475;28;20034;-82
2023/10/17 11:28:57;;;;;;;0.90;0.35;;;17.00;94.20;;;;;;4984961;28;20505;-88
2023/10/17 11:31:24;;;;;;;0.63;0.30;;;17.00;94.30;;;;;;4986803;28;20045;-83
2023/10/17 11:33:55;;;;;;;0.85;0.30;;;17.10;94.00;;;;;;4985884;28;20046;-84
2023/10/17 11:36:22;;;;;;;0.22;0.22;;;17.20;94.30;;;;;;5051715;28;20057;-83
2023/10/17 11:38:58;;;;;;;0.30;0.20;;;17.20;94.60;;;;;;4985037;28;20663;-84
2023/10/17 11:41:31;;;;;;;1.13;0.40;;;17.40;95.00;;;;;;4985364;28;20482;-84
2023/10/17 11:44:04;;;;;;;1.40;0.10;;;17.40;94.80;;;;;;4984039;28;20050;-84
2023/10/17 11:46:30;;;;;;;1.67;0.22;;;17.30;94.60;;;;;;4984198;28;20095;-84
2023/10/17 11:49:21;;;;;;;2.13;0.68;;;16.80;94.30;;;;;;4982808;28;20045;-83
2023/10/17 11:51:59;;;;;;;1.98;0.63;;;16.30;94.70;;;;;;4984044;28;20035;-83
2023/10/17 11:54:25;;;;;;;0.57;0.35;;;15.90;95.10;;;;;;5051754;28;20489;-83
2023/10/17 11:56:51;;;;;;;0.35;0.30;;;15.60;95.40;;;;;;4984064;28;20042;-84
2023/10/17 11:59:20;;;;;;;0.30;0.20;;;15.40;95.90;;;;;;4984765;28;20110;-88
2023/10/17 12:01:47;;;;;;;4.70;0.50;;;15.50;95.70;;;;;;5034007;28;20049;-84
2023/10/17 12:04:16;;;;;;;0.68;0.28;;;15.40;95.30;;;;;;4983044;28;20038;-83
2023/10/17 12:06:48;;;;;;;1.45;0.60;;;15.50;95.70;;;;;;5052003;28;20053;-83
2023/10/17 12:09:17;;;;;;;1.30;0.50;;;16.00;95.40;;;;;;5051548;28;20410;-83
2023/10/17 12:11:46;;;;;;;0.55;0.47;;;16.10;94.90;;;;;;4984007;28;20159;-85
2023/10/17 12:14:19;;;;;;;2.23;0.30;;;15.90;94.60;;;;;;4984809;28;20042;-84
2023/10/17 12:16:55;;;;;;;0.40;0.20;;;15.90;95.20;;;;;;4983916;28;20049;-83
2023/10/17 12:19:27;;;;;;;1.25;0.30;;;15.80;94.60;;;;;;4984480;28;20035;-83
2023/10/17 12:22:00;;;;;;;0.50;0.30;;;15.50;95.00;;;;;;4983513;28;20049;-83
2023/10/17 12:24:34;;;;;;;0.65;0.40;;;15.60;95.60;;;;;;4983756;28;20034;-83
2023/10/17 12:27:00;;;;;;;0.70;0.40;;;16.10;94.80;;;;;;4984501;28;20043;-83
2023/10/17 12:29:28;;;;;;;0.93;0.35;;;16.10;94.60;;;;;;4984478;28;20397;-83
2023/10/17 12:31:55;;;;;;;0.40;0.30;;;16.00;95.40;;;;;;4983734;28;20058;-83
2023/10/17 12:34:22;;;;;;;0.82;0.43;;;16.40;95.40;;;;;;4984520;28;20410;-83
2023/10/17 12:36:48;;;;;;;1.00;0.40;;;16.70;95.50;;;;;;4983791;28;20049;-83
2023/10/17 12:39:16;;;;;;;0.55;0.30;;;16.70;95.50;;;;;;4983833;28;21461;-82
2023/10/17 12:41:44;;;;;;;0.75;0.30;;;16.60;95.20;;;;;;4984409;28;20048;-84
2023/10/17 12:44:09;;;;;;;0.28;0.22;;;16.40;95.90;;;;;;4984373;28;20544;-83
2023/10/17 12:46:35;;;;;;;0.20;0.20;;;16.50;95.70;;;;;;4983681;28;20082;-84
2023/10/17 12:49:01;;;;;;;3.05;0.80;;;16.30;95.90;;;;;;4985134;28;20348;-84
2023/10/17 12:51:27;;;;;;;1.23;0.40;;;16.00;96.50;;;;;;4982886;28;20074;-84
2023/10/17 12:53:54;;;;;;;0.22;0.20;;;15.90;96.10;;;;;;4983163;28;20046;-87
2023/10/17 12:56:20;;;;;;;0.20;0.17;;;15.90;96.40;;;;;;4983823;28;20046;-83
2023/10/17 12:58:47;;;;;;;0.60;0.20;;;15.90;96.40;;;;;;4984109;28;20061;-84
2023/10/17 13:01:13;;;;;;;2.05;0.40;;;15.50;96.00;;;;;;4984513;28;20037;-83
2023/10/17 13:03:39;;;;;;;0.70;0.40;;;15.10;96.30;;;;;;4987767;28;20031;-83
2023/10/17 13:06:05;;;;;;;0.75;0.30;;;14.60;97.10;;;;;;4986694;28;20630;-83
2023/10/17 13:08:31;;;;;;;0.30;0.30;;;14.30;97.50;;;;;;4987554;28;20041;-84
2023/10/17 13:10:57;;;;;;;0.30;0.15;;;14.40;97.60;;;;;;4987105;28;20538;-83
2023/10/17 13:13:24;;;;;;;2.22;0.50;;;14.10;97.40;;;;;;4985512;28;20144;-83
2023/10/17 13:15:50;;;;;;;1.05;0.40;;;13.80;97.80;;;;;;4987756;28;20038;-84
2023/10/17 13:18:17;;;;;;;0.75;0.43;;;13.60;98.60;;;;;;5054825;28;20516;-84
2023/10/17 13:20:48;;;;;;;0.30;0.30;;;13.40;99.10;;;;;;5053024;28;20532;-85
2023/10/17 13:23:17;;;;;;;2.05;0.70;;;13.20;99.30;;;;;;4987440;28;20043;-83
2023/10/17 13:25:44;;;;;;;2.50;0.35;;;13.00;99.30;;;;;;4985829;28;20121;-83
2023/10/17 13:28:13;;;;;;;0.65;0.38;;;12.90;99.60;;;;;;4986026;28;20034;-83
2023/10/17 13:30:39;;;;;;;2.55;0.60;;;12.80;99.60;;;;;;5053811;28;20609;-83
2023/10/17 13:33:06;;;;;;;5.80;1.77;;;12.80;99.20;;;;;;5054315;28;20099;-82
2023/10/17 13:35:37;;;;;;;1.63;0.50;;;12.60;99.70;;;;;;4986289;28;20054;-83
2023/10/17 13:38:03;;;;;;;1.17;0.40;;;12.50;99.90;;;;;;4985452;28;20046;-83
2023/10/17 13:40:32;;;;;;;0.73;0.40;;;12.50;99.90;;;;;;4984924;28;20121;-83
2023/10/17 13:43:04;;;;;;;2.07;0.70;;;12.40;99.90;;;;;;5051018;28;20042;-82
2023/10/17 13:45:35;;;;;;;0.38;0.22;;;12.30;99.90;;;;;;4985035;28;20046;-83
2023/10/17 13:48:00;;;;;;;0.75;0.40;;;12.30;99.90;;;;;;4985487;28;20034;-83
2023/10/17 13:50:26;;;;;;;4.63;0.20;;;12.30;99.90;;;;;;5054017;28;20397;-83
2023/10/17 13:52:52;;;;;;;1.85;0.50;;;12.20;99.90;;;;;;5054042;28;20598;-82
2023/10/17 13:55:25;;;;;;;1.33;0.65;;;12.20;99.90;;;;;;4984404;28;20038;-82
2023/10/17 13:57:55;;;;;;;1.63;0.57;;;12.20;99.90;;;;;;4984937;28;20118;-86
2023/10/17 14:00:24;;;;;;;1.60;0.60;;;12.10;99.90;;;;;;4986120;28;20035;-85
2023/10/17 14:02:50;;;;;;;1.90;0.57;;;12.10;99.90;;;;;;4985575;28;20042;-88
2023/10/17 14:05:17;;;;;;;0.43;0.30;;;12.10;99.90;;;;;;5053570;28;20306;-87
2023/10/17 14:07:43;;;;;;;1.42;0.45;;;12.10;99.90;;;;;;5053839;28;20096;-88
2023/10/17 14:10:12;;;;;;;1.40;0.60;;;12.00;99.90;;;;;;5046283;28;20042;-88
2023/10/17 14:12:41;;;;;;;1.25;0.50;;;11.90;99.90;;;;;;5053492;28;20042;-87
2023/10/17 14:15:08;;;;;;;1.25;0.73;;;11.90;99.90;;;;;;5054273;28;20034;-88
2023/10/17 14:17:35;;;;;;;0.52;0.22;;;11.90;99.90;;;;;;4986245;28;20230;-88
2023/10/17 14:20:16;;;;;;;5.78;0.77;;;12.00;99.90;;;;;;5053888;28;20037;-88
2023/10/17 14:22:56;;;;;;;3.67;0.68;;;12.20;99.90;;;;;;5052873;28;20049;-88
2023/10/17 14:26:00;;;;;;;0.75;0.52;;;12.30;99.90;;;;;;4986150;28;20057;-88
2023/10/17 14:28:08;;;;;;;1.45;0.63;;;12.30;99.90;;;;;;5053621;28;20115;-88
2023/10/17 14:30:39;;;;;;;0.85;0.50;;;12.30;99.90;;;;;;4986087;28;20411;-87
2023/10/17 14:33:08;;;;;;;1.10;0.60;;;12.10;99.90;;;;;;4985712;28;20107;-87
2023/10/17 14:35:35;;;;;;;2.38;0.85;;;12.00;99.90;;;;;;5053606;28;20481;-88
2023/10/17 14:38:01;;;;;;;0.98;0.50;;;12.00;99.90;;;;;;5052807;28;20042;-88
2023/10/17 14:40:31;;;;;;;4.70;0.50;;;11.90;99.90;;;;;;5053259;28;20046;-88
2023/10/17 14:42:57;;;;;;;;;;;11.90;99.90;;;;;;5052641;28;20505;-86
2023/10/17 14:45:25;;;;;;;1.10;0.52;;;11.90;99.90;;;;;;5046231;28;19921;-87
2023/10/17 14:47:59;;;;;;;0.65;0.32;;;11.90;99.90;;;;;;5052899;28;20046;-87
2023/10/17 14:50:26;;;;;;;1.10;0.60;;;11.90;99.90;;;;;;5053367;28;20042;-87
2023/10/17 14:52:53;;;;;;;1.30;0.30;;;11.90;99.90;;;;;;5052648;28;20521;-87
2023/10/17 14:55:23;;;;;;;1.33;0.50;;;11.90;99.90;;;;;;4985684;28;20493;-88
2023/10/17 14:57:50;;;;;;;1.23;0.65;;;11.80;99.90;;;;;;5035169;28;20048;-89
2023/10/17 15:00:16;;;;;;;0.88;0.50;;;11.70;99.90;;;;;;5053523;28;20049;-87
2023/10/17 15:02:44;;;;;;;1.40;0.60;;;11.70;99.90;;;;;;5022549;28;20053;-88
2023/10/17 15:05:13;;;;;;;0.77;0.60;;;11.60;99.90;;;;;;5052599;28;20045;-87
2023/10/17 15:07:40;;;;;;;0.98;0.57;;;11.60;99.90;;;;;;5053205;28;20045;-88
2023/10/17 15:10:11;;;;;;;0.90;0.43;;;11.50;99.90;;;;;;5052581;28;20043;-88
2023/10/17 15:12:42;;;;;;;1.20;0.80;;;11.50;99.90;;;;;;5052482;28;20150;-89